Time;durP1;ratioP1;P1;durP2;ratioP2;P2;SDS_P1;SDS_P2;PMS_P1;PMS_P2;Temp;Humidity;BMP_temperature;BMP_pressure;BME280_temperature;BME280_humidity;BME280_pressure;Samples;Min_cycle;Max_cycle;Signal;HPM_P1;HPM_P2
2023/07/09 00:00:49;;;;;;;9.82;7.35;;;461.70;2380.80;;;;;;5089342;28;20035;-60
2023/07/09 00:03:15;;;;;;;8.75;6.68;;;461.70;2380.80;;;;;;5089411;28;20032;-60
2023/07/09 00:05:41;;;;;;;11.38;6.88;;;461.60;2380.80;;;;;;5089378;28;20374;-59
2023/07/09 00:08:26;;;;;;;7.65;6.85;;;461.50;2380.80;;;;;;5089319;28;20497;-59
2023/07/09 00:10:53;;;;;;;9.30;6.85;;;461.50;2380.80;;;;;;5089286;28;20373;-59
2023/07/09 00:13:20;;;;;;;8.95;6.78;;;461.50;2380.80;;;;;;5089361;28;20382;-60
2023/07/09 00:15:45;;;;;;;9.73;6.75;;;461.50;2380.80;;;;;;5076146;28;20031;-60
2023/07/09 00:18:11;;;;;;;8.20;6.47;;;461.70;2380.80;;;;;;5089247;28;20028;-61
2023/07/09 00:20:37;;;;;;;13.35;7.43;;;461.70;2380.80;;;;;;5089461;28;20040;-59
2023/07/09 00:23:04;;;;;;;10.38;6.80;;;461.70;2380.80;;;;;;5089067;28;20039;-59
2023/07/09 00:25:30;;;;;;;7.45;6.57;;;461.70;2380.80;;;;;;5089205;28;20024;-60
2023/07/09 00:27:56;;;;;;;11.00;7.05;;;461.70;2380.80;;;;;;5089109;28;20107;-64
2023/07/09 00:30:23;;;;;;;8.82;7.40;;;461.70;2380.80;;;;;;5089093;28;20107;-60
2023/07/09 00:32:50;;;;;;;9.52;7.10;;;461.70;2380.80;;;;;;5088901;28;20024;-59
2023/07/09 00:35:16;;;;;;;10.13;7.30;;;461.70;2380.80;;;;;;5090517;28;20050;-60
2023/07/09 00:37:45;;;;;;;9.80;7.35;;;461.60;2380.80;;;;;;5096098;28;20525;-60
2023/07/09 00:40:18;;;;;;;9.38;6.82;;;461.60;2380.80;;;;;;5096020;28;20028;-60
2023/07/09 00:42:46;;;;;;;9.02;7.45;;;461.60;2380.80;;;;;;5082432;28;20112;-60
2023/07/09 00:45:24;;;;;;;10.20;6.53;;;461.50;2380.80;;;;;;5095958;28;20110;-60
2023/07/09 00:48:00;;;;;;;8.88;7.00;;;461.50;2380.80;;;;;;5095523;28;20068;-61
2023/07/09 00:50:34;;;;;;;14.45;7.40;;;461.50;2380.80;;;;;;5095717;28;20020;-59
2023/07/09 00:53:22;;;;;;;10.57;7.05;;;461.50;2380.80;;;;;;5095658;28;20058;-59
2023/07/09 00:56:09;;;;;;;10.45;6.93;;;461.50;2380.80;;;;;;5095591;28;20043;-60
2023/07/09 00:58:38;;;;;;;9.43;7.57;;;461.40;2380.80;;;;;;5095396;28;20430;-60
2023/07/09 01:01:09;;;;;;;8.68;6.78;;;461.70;2380.80;;;;;;5095381;28;20409;-60
2023/07/09 01:03:47;;;;;;;9.45;7.53;;;461.40;2380.80;;;;;;5095311;28;20085;-64
2023/07/09 01:06:15;;;;;;;9.40;7.07;;;461.40;2380.80;;;;;;5095930;28;20366;-60
2023/07/09 01:08:41;;;;;;;8.68;6.30;;;461.40;2380.80;;;;;;5081971;28;20022;-60
2023/07/09 01:11:21;;;;;;;9.57;7.13;;;461.40;2380.80;;;;;;5095283;28;20505;-60
2023/07/09 01:13:59;;;;;;;9.93;7.07;;;461.30;2380.80;;;;;;5095272;28;20024;-61
2023/07/09 01:16:28;;;;;;;14.82;6.75;;;461.30;2380.80;;;;;;5095086;28;20024;-63
2023/07/09 01:18:54;;;;;;;10.63;7.50;;;461.30;2380.80;;;;;;5095580;28;20039;-60
2023/07/09 01:21:20;;;;;;;8.68;6.38;;;461.30;2380.80;;;;;;5095248;28;20385;-60
2023/07/09 01:23:48;;;;;;;11.55;7.55;;;461.20;2380.80;;;;;;5095105;28;20032;-59
2023/07/09 01:26:17;;;;;;;13.65;7.05;;;461.20;2380.80;;;;;;5095468;28;20027;-59
2023/07/09 01:28:46;;;;;;;11.85;7.78;;;461.10;2380.80;;;;;;5095456;28;20035;-59
2023/07/09 01:31:14;;;;;;;9.30;7.53;;;461.00;2380.80;;;;;;5095280;28;20028;-59
2023/07/09 01:33:47;;;;;;;11.32;7.50;;;461.00;2380.80;;;;;;5095625;28;20067;-63
2023/07/09 01:36:15;;;;;;;11.25;6.72;;;460.90;2380.80;;;;;;5095614;28;20020;-59
2023/07/09 01:38:42;;;;;;;11.35;7.22;;;460.80;2380.80;;;;;;5095522;28;20020;-64
2023/07/09 01:41:08;;;;;;;8.07;6.65;;;460.80;2380.80;;;;;;5094945;28;20063;-59
2023/07/09 01:43:34;;;;;;;11.40;6.88;;;436.10;2355.20;;;;;;5094849;28;20060;-59
2023/07/09 01:46:01;;;;;;;8.43;6.68;;;436.10;2355.20;;;;;;5094880;28;20021;-65
2023/07/09 01:48:27;;;;;;;10.18;7.35;;;436.10;2355.20;;;;;;5091085;28;20122;-62
2023/07/09 01:50:54;;;;;;;13.38;7.53;;;436.10;2355.20;;;;;;5091922;28;20020;-59
2023/07/09 01:53:23;;;;;;;8.77;6.78;;;460.80;2380.80;;;;;;5092118;28;20558;-59
2023/07/09 01:55:50;;;;;;;11.63;6.80;;;460.80;2380.80;;;;;;5090054;28;20020;-59
2023/07/09 01:58:16;;;;;;;10.70;7.32;;;460.90;2380.80;;;;;;5091670;28;20078;-59
2023/07/09 02:00:44;;;;;;;10.80;6.93;;;460.90;2380.80;;;;;;5091727;28;20032;-60
2023/07/09 02:03:11;;;;;;;10.15;6.78;;;460.90;2380.80;;;;;;5091740;28;20082;-60
2023/07/09 02:05:37;;;;;;;13.43;7.32;;;460.90;2380.80;;;;;;5091209;28;20454;-59
2023/07/09 02:08:03;;;;;;;8.38;7.05;;;460.80;2380.80;;;;;;5091809;28;20421;-59
2023/07/09 02:10:29;;;;;;;8.68;6.22;;;460.90;2380.80;;;;;;5091708;28;20099;-60
2023/07/09 02:12:55;;;;;;;9.07;6.75;;;460.90;2380.80;;;;;;5091396;28;20107;-59
2023/07/09 02:15:21;;;;;;;11.23;7.15;;;461.00;2380.80;;;;;;5091314;28;20381;-60
2023/07/09 02:17:47;;;;;;;8.38;6.47;;;460.90;2380.80;;;;;;5091391;28;20024;-60
2023/07/09 02:20:13;;;;;;;8.48;7.10;;;461.00;2380.80;;;;;;5091587;28;20093;-60
2023/07/09 02:22:40;;;;;;;10.30;6.97;;;460.90;2380.80;;;;;;5091375;28;20070;-61
2023/07/09 02:25:07;;;;;;;8.70;7.05;;;460.90;2380.80;;;;;;5091241;28;20024;-60
2023/07/09 02:27:35;;;;;;;10.18;6.38;;;460.90;2380.80;;;;;;5091293;28;20020;-59
2023/07/09 02:30:02;;;;;;;8.65;6.82;;;460.90;2380.80;;;;;;5091064;28;20442;-60
2023/07/09 02:32:28;;;;;;;10.00;7.45;;;460.90;2380.80;;;;;;5091058;28;20024;-59
2023/07/09 02:34:54;;;;;;;10.10;6.70;;;460.80;2380.80;;;;;;5090821;28;20020;-61
2023/07/09 02:37:22;;;;;;;10.70;6.80;;;460.80;2380.80;;;;;;5091361;28;20110;-60
2023/07/09 02:39:49;;;;;;;13.98;8.07;;;460.80;2380.80;;;;;;5091282;28;20020;-60
2023/07/09 02:42:18;;;;;;;11.27;7.80;;;436.00;2355.20;;;;;;5091120;28;20024;-63
2023/07/09 02:44:44;;;;;;;9.77;8.38;;;435.90;2355.20;;;;;;5090941;28;20024;-60
2023/07/09 02:47:11;;;;;;;12.32;7.32;;;435.90;2355.20;;;;;;5090740;28;20055;-64
2023/07/09 02:49:37;;;;;;;11.98;7.43;;;435.90;2355.20;;;;;;5090657;28;20059;-60
2023/07/09 02:52:04;;;;;;;13.15;7.05;;;435.80;2355.20;;;;;;5091015;28;20020;-59
2023/07/09 02:54:30;;;;;;;9.77;6.43;;;435.80;2355.20;;;;;;5090694;28;20165;-60
2023/07/09 02:56:55;;;;;;;12.35;7.10;;;435.70;2355.20;;;;;;5090545;28;20103;-61
2023/07/09 02:59:21;;;;;;;10.45;7.07;;;435.70;2355.20;;;;;;5089386;28;20042;-60
2023/07/09 03:01:48;;;;;;;9.70;6.53;;;435.80;2355.20;;;;;;5090359;28;20020;-60
2023/07/09 03:04:14;;;;;;;10.15;7.15;;;435.90;2355.20;;;;;;5090278;28;20036;-61
2023/07/09 03:06:40;;;;;;;9.82;7.28;;;436.00;2355.20;;;;;;5090447;28;20482;-61
2023/07/09 03:09:06;;;;;;;12.70;7.75;;;436.10;2355.20;;;;;;5090400;28;20035;-60
2023/07/09 03:11:34;;;;;;;10.02;6.93;;;436.10;2355.20;;;;;;5090230;28;20048;-60
2023/07/09 03:14:01;;;;;;;12.18;7.55;;;436.00;2355.20;;;;;;5090336;28;20036;-60
2023/07/09 03:16:28;;;;;;;9.45;7.15;;;436.10;2355.20;;;;;;5089983;28;20470;-59
2023/07/09 03:18:54;;;;;;;8.75;5.72;;;460.80;2380.80;;;;;;5090122;28;20115;-60
2023/07/09 03:21:21;;;;;;;9.65;7.03;;;460.80;2380.80;;;;;;5090341;28;20032;-59
2023/07/09 03:23:46;;;;;;;9.57;7.05;;;460.80;2380.80;;;;;;5090146;28;20032;-60
2023/07/09 03:26:12;;;;;;;9.30;6.93;;;460.90;2380.80;;;;;;5090048;28;20017;-59
2023/07/09 03:28:38;;;;;;;8.63;7.07;;;460.90;2380.80;;;;;;5090483;28;20084;-60
2023/07/09 03:31:04;;;;;;;9.68;6.70;;;460.90;2380.80;;;;;;5089843;28;20020;-62
2023/07/09 03:33:29;;;;;;;8.93;6.88;;;461.00;2380.80;;;;;;5090285;28;20133;-60
2023/07/09 03:35:55;;;;;;;10.70;8.18;;;460.90;2380.80;;;;;;5089766;28;20020;-60
2023/07/09 03:38:21;;;;;;;9.73;7.07;;;460.90;2380.80;;;;;;5090074;28;20059;-60
2023/07/09 03:40:54;;;;;;;9.98;6.95;;;460.80;2380.80;;;;;;5089812;28;20024;-60
2023/07/09 03:43:21;;;;;;;10.48;6.88;;;460.90;2380.80;;;;;;5089893;28;20028;-60
2023/07/09 03:45:47;;;;;;;10.10;6.30;;;461.00;2380.80;;;;;;5089503;28;20032;-61
2023/07/09 03:48:14;;;;;;;9.50;7.05;;;461.10;2380.80;;;;;;5089858;28;20093;-66
2023/07/09 03:50:39;;;;;;;14.23;7.45;;;461.30;2380.80;;;;;;5089883;28;20027;-60
2023/07/09 03:53:05;;;;;;;9.65;7.05;;;461.40;2380.80;;;;;;5089728;28;20224;-60
2023/07/09 03:55:31;;;;;;;8.35;7.03;;;461.40;2380.80;;;;;;5089833;28;20026;-60
2023/07/09 03:57:57;;;;;;;10.90;6.50;;;461.40;2380.80;;;;;;5089785;28;20377;-60
2023/07/09 04:00:24;;;;;;;14.73;6.57;;;461.50;2380.80;;;;;;5089625;28;20035;-60
2023/07/09 04:02:51;;;;;;;8.00;7.03;;;461.60;2380.80;;;;;;5089423;28;20078;-60
2023/07/09 04:05:17;;;;;;;8.70;6.82;;;461.70;2380.80;;;;;;5089286;28;20402;-60
2023/07/09 04:07:44;;;;;;;18.60;6.80;;;486.40;2380.80;;;;;;5089959;28;20424;-60
2023/07/09 04:10:10;;;;;;;8.80;6.85;;;486.40;2380.80;;;;;;5089005;28;20028;-59
2023/07/09 04:12:36;;;;;;;8.65;6.80;;;461.70;2380.80;;;;;;5087975;28;20055;-59
2023/07/09 04:15:03;;;;;;;8.32;6.35;;;461.60;2380.80;;;;;;5089351;28;20482;-59
2023/07/09 04:17:29;;;;;;;8.50;6.07;;;461.70;2380.80;;;;;;5089243;28;20034;-59
2023/07/09 04:19:55;;;;;;;9.50;6.85;;;461.70;2380.80;;;;;;5088882;28;20039;-59
2023/07/09 04:22:21;;;;;;;11.70;6.93;;;486.40;2380.80;;;;;;5089305;28;20042;-59
2023/07/09 04:24:47;;;;;;;8.05;6.25;;;486.50;2380.80;;;;;;5088756;28;20036;-59
2023/07/09 04:27:13;;;;;;;9.65;6.95;;;486.50;2380.80;;;;;;5089283;28;20024;-59
2023/07/09 04:29:40;;;;;;;8.50;5.97;;;486.50;2380.80;;;;;;5089276;28;20032;-59
2023/07/09 04:32:08;;;;;;;10.52;6.53;;;486.60;2380.80;;;;;;5089140;28;20119;-58
2023/07/09 04:34:33;;;;;;;8.45;6.78;;;486.70;2380.80;;;;;;5088859;28;20577;-60
2023/07/09 04:36:59;;;;;;;13.70;6.70;;;487.00;2380.80;;;;;;5089201;28;20044;-60
2023/07/09 04:39:25;;;;;;;8.38;6.25;;;487.30;2380.80;;;;;;5088930;28;20099;-60
2023/07/09 04:41:50;;;;;;;10.25;7.00;;;589.30;2432.00;;;;;;5089133;28;20027;-60
2023/07/09 04:44:16;;;;;;;7.95;6.50;;;691.30;2278.40;;;;;;5089044;28;20060;-60
2023/07/09 04:46:42;;;;;;;9.82;7.55;;;742.80;1971.20;;;;;;5089007;28;20499;-66
2023/07/09 04:49:11;;;;;;;9.85;7.63;;;793.80;1817.60;;;;;;5088900;28;20032;-60
2023/07/09 04:51:37;;;;;;;11.02;6.97;;;819.80;1689.60;;;;;;5089000;28;20024;-60
2023/07/09 04:54:03;;;;;;;7.68;6.95;;;844.90;1638.40;;;;;;5089264;28;20501;-60
2023/07/09 04:56:29;;;;;;;8.98;7.53;;;871.10;1536.00;;;;;;5089127;28;20028;-60
2023/07/09 04:58:55;;;;;;;8.00;7.20;;;896.90;1459.20;;;;;;5088769;28;20028;-60
2023/07/09 05:01:21;;;;;;;9.02;7.35;;;922.10;1433.60;;;;;;5088627;28;20047;-59
2023/07/09 05:03:47;;;;;;;7.70;6.85;;;947.40;1382.40;;;;;;5088555;28;20055;-60
2023/07/09 05:06:15;;;;;;;8.57;7.75;;;947.20;1382.40;;;;;;5089194;28;20028;-60
2023/07/09 05:08:42;;;;;;;9.15;6.70;;;947.30;1382.40;;;;;;5088576;28;20050;-64
2023/07/09 05:11:10;;;;;;;10.00;7.57;;;972.90;1356.80;;;;;;5088628;28;20492;-59
2023/07/09 05:13:36;;;;;;;8.68;7.20;;;;;;;;;;5088646;28;20036;-59
2023/07/09 05:16:02;;;;;;;8.77;7.82;;;973.20;1331.20;;;;;;5088672;28;20073;-64
2023/07/09 05:18:29;;;;;;;8.45;7.65;;;973.70;1280.00;;;;;;5088755;28;20038;-61
2023/07/09 05:20:55;;;;;;;9.65;7.47;;;998.70;1280.00;;;;;;5088510;28;20029;-62
2023/07/09 05:23:21;;;;;;;9.82;8.32;;;1024.40;1228.80;;;;;;5091177;28;20073;-60
2023/07/09 05:25:47;;;;;;;9.45;8.45;;;1024.90;1203.20;;;;;;5092497;28;20020;-61
2023/07/09 05:28:12;;;;;;;9.60;8.63;;;1050.00;1203.20;;;;;;5092679;28;20493;-61
2023/07/09 05:30:42;;;;;;;10.07;9.00;;;1050.40;1177.60;;;;;;5077132;28;20030;-61
2023/07/09 05:33:07;;;;;;;10.07;9.00;;;1075.90;1152.00;;;;;;5072081;28;20103;-60
2023/07/09 05:35:33;;;;;;;11.50;10.40;;;1076.10;1152.00;;;;;;5085630;28;20165;-60
2023/07/09 05:37:59;;;;;;;11.18;10.07;;;1100.90;1152.00;;;;;;5072345;28;20021;-61
2023/07/09 05:40:24;;;;;;;10.55;9.75;;;1101.00;1152.00;;;;;;5071768;28;20055;-61
2023/07/09 05:42:50;;;;;;;10.15;9.15;;;1101.40;1126.40;;;;;;5072016;28;20028;-60
2023/07/09 05:45:16;;;;;;;10.98;9.98;;;1126.40;1126.40;;;;;;5071525;28;20028;-62
2023/07/09 05:47:42;;;;;;;9.70;8.98;;;1126.70;1126.40;;;;;;5071877;28;20072;-62
2023/07/09 05:50:08;;;;;;;11.60;10.60;;;1126.70;1126.40;;;;;;5071373;28;20102;-61
2023/07/09 05:52:34;;;;;;;11.85;10.90;;;1127.10;1100.80;;;;;;5071711;28;20025;-61
2023/07/09 05:55:00;;;;;;;11.63;10.60;;;1152.60;1075.20;;;;;;5084857;28;20021;-61
2023/07/09 05:57:26;;;;;;;12.13;11.23;;;1152.70;1075.20;;;;;;5071411;28;20024;-60
2023/07/09 05:59:52;;;;;;;11.90;11.00;;;1177.60;1075.20;;;;;;5085158;28;20021;-67
2023/07/09 06:02:20;;;;;;;11.95;10.95;;;1177.70;1049.60;;;;;;5084710;28;20035;-61
2023/07/09 06:04:49;;;;;;;11.80;10.73;;;1178.10;1049.60;;;;;;5090840;28;20428;-66
2023/07/09 06:07:15;;;;;;;11.85;10.77;;;1178.30;1024.00;;;;;;5090842;28;20024;-62
2023/07/09 06:09:41;;;;;;;12.63;10.30;;;1178.20;1024.00;;;;;;5086842;28;20042;-61
2023/07/09 06:12:07;;;;;;;12.05;11.07;;;1203.30;1024.00;;;;;;5090428;28;20055;-62
2023/07/09 06:14:33;;;;;;;10.88;9.98;;;1203.80;1049.60;;;;;;5090885;28;20059;-61
2023/07/09 06:17:01;;;;;;;12.30;11.50;;;1204.10;1024.00;;;;;;5090533;28;20021;-61
2023/07/09 06:19:27;;;;;;;13.18;11.93;;;1204.10;998.40;;;;;;5090423;28;20050;-61
2023/07/09 06:21:52;;;;;;;16.02;11.48;;;1203.30;1049.60;;;;;;5090416;28;20028;-59
2023/07/09 06:24:18;;;;;;;12.02;10.93;;;1203.70;1049.60;;;;;;5089882;28;20028;-62
2023/07/09 06:26:44;;;;;;;12.68;11.57;;;1228.80;1049.60;;;;;;5090168;28;20028;-63
2023/07/09 06:29:09;;;;;;;11.98;11.07;;;1229.40;1024.00;;;;;;5090810;28;20047;-61
2023/07/09 06:31:37;;;;;;;12.13;11.13;;;1254.80;998.40;;;;;;5090095;28;20031;-61
2023/07/09 06:34:03;;;;;;;12.65;11.73;;;1255.10;972.80;;;;;;5090544;28;20028;-68
2023/07/09 06:36:29;;;;;;;13.63;12.65;;;1280.50;972.80;;;;;;5091094;28;20027;-62
2023/07/09 06:38:54;;;;;;;12.57;11.45;;;1280.70;972.80;;;;;;5090720;28;20024;-64
2023/07/09 06:41:20;;;;;;;13.48;12.27;;;1280.70;947.20;;;;;;5091137;28;20099;-62
2023/07/09 06:43:46;;;;;;;12.23;11.30;;;;;;;;;;5090540;28;20024;-65
2023/07/09 06:46:13;;;;;;;13.93;12.80;;;;;;;;;;5090813;28;21168;-68
2023/07/09 06:48:39;;;;;;;13.07;12.07;;;1305.60;921.60;;;;;;5090745;28;20467;-61
2023/07/09 06:51:05;;;;;;;13.18;12.27;;;1305.70;921.60;;;;;;5090742;28;20103;-60
2023/07/09 06:53:30;;;;;;;11.95;10.90;;;1280.70;947.20;;;;;;5090714;28;20028;-68
2023/07/09 06:55:58;;;;;;;14.02;12.82;;;1305.60;896.00;;;;;;5091064;28;20031;-66
2023/07/09 06:58:31;;;;;;;14.57;13.32;;;1306.00;896.00;;;;;;5090239;28;20020;-62
2023/07/09 07:00:57;;;;;;;13.57;12.57;;;1305.90;896.00;;;;;;5090562;28;20039;-61
2023/07/09 07:03:24;;;;;;;12.82;11.95;;;1306.50;844.80;;;;;;5090491;28;20027;-62
2023/07/09 07:05:53;;;;;;;13.30;12.38;;;1331.60;870.40;;;;;;5090107;28;20028;-61
2023/07/09 07:08:20;;;;;;;14.23;13.07;;;1331.40;870.40;;;;;;5090816;28;20375;-61
2023/07/09 07:10:48;;;;;;;13.35;12.35;;;1331.60;870.40;;;;;;5090386;28;20103;-62
2023/07/09 07:13:14;;;;;;;13.25;12.25;;;1331.40;844.80;;;;;;5090329;28;20069;-62
2023/07/09 07:15:40;;;;;;;15.30;13.80;;;1331.90;844.80;;;;;;5090507;28;20024;-67
2023/07/09 07:18:06;;;;;;;13.63;12.63;;;1357.20;844.80;;;;;;5089862;28;20022;-62
2023/07/09 07:20:33;;;;;;;13.35;12.25;;;;;;;;;;5090205;28;20044;-68
2023/07/09 07:22:59;;;;;;;13.35;12.45;;;1357.20;870.40;;;;;;5089874;28;20116;-62
2023/07/09 07:25:25;;;;;;;14.50;13.50;;;1357.50;844.80;;;;;;5090153;28;20102;-65
2023/07/09 07:27:51;;;;;;;15.55;13.70;;;1357.70;844.80;;;;;;5090243;28;20028;-66
2023/07/09 07:30:17;;;;;;;14.95;13.85;;;1357.40;870.40;;;;;;5090148;28;20470;-63
2023/07/09 07:32:48;;;;;;;15.30;14.13;;;1357.40;870.40;;;;;;5090188;28;20020;-62
2023/07/09 07:35:15;;;;;;;14.98;14.05;;;1357.50;870.40;;;;;;5089770;28;20087;-63
2023/07/09 07:37:41;;;;;;;14.68;13.68;;;1357.70;844.80;;;;;;5090385;28;20073;-62
2023/07/09 07:40:08;;;;;;;14.20;13.10;;;1357.20;870.40;;;;;;5090109;28;20028;-63
2023/07/09 07:42:34;;;;;;;14.13;13.23;;;1357.70;793.60;;;;;;5083578;28;20127;-62
2023/07/09 07:44:59;;;;;;;13.00;12.13;;;1382.40;844.80;;;;;;5081368;28;20142;-69
2023/07/09 07:47:27;;;;;;;13.63;12.45;;;1382.40;819.20;;;;;;5089280;28;20044;-66
2023/07/09 07:49:53;;;;;;;13.05;12.20;;;1356.80;844.80;;;;;;5090106;28;20032;-64
2023/07/09 07:52:19;;;;;;;13.05;12.25;;;1331.90;844.80;;;;;;5089758;28;20020;-65
2023/07/09 07:54:45;;;;;;;13.52;12.20;;;1332.10;819.20;;;;;;5089659;28;20100;-59
2023/07/09 07:57:11;;;;;;;11.90;11.20;;;1306.30;793.60;;;;;;5089811;28;20028;-67
2023/07/09 07:59:38;;;;;;;11.88;10.93;;;1306.00;793.60;;;;;;5089774;28;20428;-62
2023/07/09 08:02:05;;;;;;;12.80;11.65;;;1331.60;793.60;;;;;;5087725;28;20481;-63
2023/07/09 08:04:31;;;;;;;12.65;11.70;;;1331.40;793.60;;;;;;5089420;28;20119;-63
2023/07/09 08:06:58;;;;;;;12.48;11.57;;;1331.20;793.60;;;;;;5089387;28;20104;-65
2023/07/09 08:09:24;;;;;;;10.90;10.18;;;1280.90;793.60;;;;;;5089769;28;20039;-63
2023/07/09 08:11:50;;;;;;;11.00;10.20;;;1280.70;793.60;;;;;;5089458;28;20020;-65
2023/07/09 08:14:16;;;;;;;10.55;9.80;;;1229.70;819.20;;;;;;5089595;28;20398;-65
2023/07/09 08:16:42;;;;;;;10.88;10.07;;;1229.30;896.00;;;;;;5089237;28;20016;-65
2023/07/09 08:19:07;;;;;;;10.77;9.73;;;1203.40;819.20;;;;;;5089180;28;20046;-62
2023/07/09 08:21:33;;;;;;;9.98;9.35;;;1126.40;921.60;;;;;;5089642;28;20107;-67
2023/07/09 08:23:59;;;;;;;8.18;7.30;;;1075.80;896.00;;;;;;5089365;28;20080;-65
2023/07/09 08:26:25;;;;;;;7.70;6.90;;;998.80;972.80;;;;;;5088764;28;20423;-67
2023/07/09 08:28:51;;;;;;;6.15;5.55;;;973.20;1024.00;;;;;;5089265;28;20024;-61
2023/07/09 08:31:17;;;;;;;7.05;6.03;;;922.40;1075.20;;;;;;5089117;28;20044;-61
2023/07/09 08:33:43;;;;;;;7.93;5.65;;;921.80;1100.80;;;;;;5089402;28;20370;-62
2023/07/09 08:36:09;;;;;;;6.63;5.07;;;871.20;1126.40;;;;;;5089401;28;20024;-66
2023/07/09 08:38:35;;;;;;;7.88;5.43;;;871.30;1152.00;;;;;;5089399;28;20555;-61
2023/07/09 08:41:06;;;;;;;7.00;5.15;;;845.70;1152.00;;;;;;5089182;28;20528;-61
2023/07/09 08:43:58;;;;;;;6.78;5.10;;;845.70;1177.60;;;;;;5088972;28;20036;-63
2023/07/09 08:47:08;;;;;;;6.35;5.50;;;845.20;1177.60;;;;;;5075809;28;20032;-61
2023/07/09 08:50:00;;;;;;;7.07;5.03;;;845.70;1203.20;;;;;;5065024;28;20040;-62
2023/07/09 08:52:35;;;;;;;6.25;5.65;;;870.60;1228.80;;;;;;5088825;28;20030;-65
2023/07/09 08:55:15;;;;;;;7.43;5.22;;;845.70;1203.20;;;;;;5070399;28;20032;-61
2023/07/09 08:57:45;;;;;;;7.80;5.28;;;845.70;1228.80;;;;;;5079583;28;20494;-60
2023/07/09 09:00:28;;;;;;;7.10;4.65;;;845.30;1203.20;;;;;;5092900;28;20039;-67
2023/07/09 09:03:23;;;;;;;5.40;4.90;;;845.30;1177.60;;;;;;5086054;28;20111;-61
2023/07/09 09:05:49;;;;;;;7.30;4.60;;;820.00;1152.00;;;;;;5030439;28;20056;-66
2023/07/09 09:08:27;;;;;;;6.70;4.88;;;844.80;1228.80;;;;;;5030333;28;20076;-66
2023/07/09 09:11:08;;;;;;;7.15;4.95;;;844.90;1177.60;;;;;;5029826;28;20045;-68
2023/07/09 09:13:36;;;;;;;12.13;5.10;;;844.90;1203.20;;;;;;5029312;28;20447;-65
2023/07/09 09:16:09;;;;;;;4.80;4.18;;;844.80;1203.20;;;;;;5028626;28;20033;-66
2023/07/09 09:18:42;;;;;;;8.73;4.97;;;819.50;1152.00;;;;;;5029332;28;20084;-60
2023/07/09 09:21:15;;;;;;;5.85;4.82;;;819.30;1177.60;;;;;;5028830;28;20068;-59
2023/07/09 09:23:52;;;;;;;5.82;4.78;;;794.50;1203.20;;;;;;5028619;28;20033;-59
2023/07/09 09:26:27;;;;;;;5.35;4.40;;;819.20;1228.80;;;;;;5029435;28;20037;-64
2023/07/09 09:28:53;;;;;;;5.82;4.60;;;819.60;1254.40;;;;;;5029849;28;20128;-61
2023/07/09 09:31:18;;;;;;;7.95;4.20;;;819.50;1305.60;;;;;;5028287;28;20029;-60
2023/07/09 09:33:47;;;;;;;4.90;4.10;;;819.60;1203.20;;;;;;5028868;28;20017;-60
2023/07/09 09:36:23;;;;;;;5.55;4.15;;;819.70;1254.40;;;;;;5029122;28;20042;-58
2023/07/09 09:38:50;;;;;;;7.38;5.13;;;819.60;1228.80;;;;;;5029260;28;20021;-60
2023/07/09 09:41:19;;;;;;;5.28;4.78;;;819.50;1254.40;;;;;;5027925;28;20033;-61
2023/07/09 09:43:47;;;;;;;6.28;4.57;;;819.40;1228.80;;;;;;5075479;28;20048;-63
2023/07/09 09:46:19;;;;;;;6.43;5.13;;;794.50;1331.20;;;;;;5089487;28;20439;-67
2023/07/09 09:48:47;;;;;;;5.03;4.53;;;819.50;1280.00;;;;;;5092174;28;20021;-64
2023/07/09 09:51:14;;;;;;;4.70;4.05;;;819.40;1331.20;;;;;;5078434;28;20077;-60
2023/07/09 09:53:45;;;;;;;5.57;4.88;;;819.50;1203.20;;;;;;5091866;28;20054;-64
2023/07/09 09:56:20;;;;;;;4.22;3.83;;;819.60;1177.60;;;;;;5092334;28;20079;-62
2023/07/09 09:58:52;;;;;;;5.85;4.55;;;819.40;1228.80;;;;;;5092090;28;20108;-62
2023/07/09 10:01:18;;;;;;;5.90;4.68;;;794.40;1254.40;;;;;;5091855;28;20013;-65
2023/07/09 10:03:48;;;;;;;5.22;4.20;;;794.20;1280.00;;;;;;5091450;28;20031;-61
2023/07/09 10:06:34;;;;;;;6.05;4.78;;;793.60;1280.00;;;;;;5091789;28;20028;-61
2023/07/09 10:09:02;;;;;;;6.13;4.32;;;794.00;1254.40;;;;;;5080286;28;20036;-60
2023/07/09 10:11:45;;;;;;;4.95;3.83;;;793.70;1254.40;;;;;;5078791;28;20028;-64
2023/07/09 10:14:42;;;;;;;6.53;4.57;;;794.00;1254.40;;;;;;5091854;28;20024;-60
2023/07/09 10:17:43;;;;;;;7.65;4.55;;;794.00;1280.00;;;;;;5091159;28;20402;-59
2023/07/09 10:20:31;;;;;;;7.03;5.05;;;793.70;1254.40;;;;;;5078618;28;20032;-60
2023/07/09 10:23:12;;;;;;;5.85;4.53;;;768.70;1254.40;;;;;;5091195;28;20111;-62
2023/07/09 10:25:48;;;;;;;5.97;4.35;;;793.70;1254.40;;;;;;5091226;28;20028;-61
2023/07/09 10:28:32;;;;;;;7.85;4.05;;;793.80;1331.20;;;;;;5091224;28;20028;-60
2023/07/09 10:31:27;;;;;;;7.47;4.93;;;794.00;1331.20;;;;;;5081955;28;20017;-59
2023/07/09 10:34:19;;;;;;;6.93;4.60;;;793.60;1280.00;;;;;;5065647;28;20086;-60
2023/07/09 10:36:59;;;;;;;6.35;3.72;;;793.70;1305.60;;;;;;5072218;28;20082;-62
2023/07/09 10:39:46;;;;;;;6.97;4.70;;;768.80;1228.80;;;;;;5077046;28;20025;-61
2023/07/09 10:42:27;;;;;;;5.90;4.03;;;768.90;1228.80;;;;;;5069454;28;20127;-61
2023/07/09 10:45:26;;;;;;;5.07;4.22;;;768.80;1203.20;;;;;;5069301;28;20036;-61
2023/07/09 10:47:59;;;;;;;5.95;3.85;;;768.90;1254.40;;;;;;5022720;28;20052;-61
2023/07/09 10:50:30;;;;;;;6.97;4.05;;;793.70;1331.20;;;;;;5026292;28;20030;-62
2023/07/09 10:53:00;;;;;;;7.57;4.07;;;793.80;1408.00;;;;;;5026624;28;20385;-61
2023/07/09 10:55:30;;;;;;;6.45;4.53;;;793.80;1356.80;;;;;;5026637;28;20025;-61
2023/07/09 10:58:04;;;;;;;8.05;4.57;;;793.80;1331.20;;;;;;5026345;28;20041;-66
2023/07/09 11:00:36;;;;;;;5.00;4.60;;;793.70;1433.60;;;;;;5026800;28;20038;-60
2023/07/09 11:03:18;;;;;;;5.95;4.72;;;793.70;1382.40;;;;;;5024782;28;20025;-60
2023/07/09 11:05:45;;;;;;;7.82;4.15;;;793.80;1408.00;;;;;;5024993;28;20249;-61
2023/07/09 11:08:23;;;;;;;6.07;4.57;;;793.70;1305.60;;;;;;5025961;28;20168;-62
2023/07/09 11:10:56;;;;;;;7.85;4.80;;;793.70;1382.40;;;;;;5025588;28;20052;-61
2023/07/09 11:13:37;;;;;;;7.07;4.97;;;793.70;1433.60;;;;;;5026256;28;20526;-60
2023/07/09 11:16:06;;;;;;;5.40;4.90;;;793.70;1408.00;;;;;;5025776;28;20029;-62
2023/07/09 11:18:34;;;;;;;7.00;5.50;;;793.70;1382.40;;;;;;5026088;28;20577;-60
2023/07/09 11:21:17;;;;;;;5.35;4.50;;;793.60;1356.80;;;;;;5025281;28;20033;-63
2023/07/09 11:23:54;;;;;;;4.63;4.05;;;768.60;1305.60;;;;;;5025680;28;20088;-61
2023/07/09 11:26:34;;;;;;;5.72;4.78;;;768.80;1433.60;;;;;;5068566;28;20036;-60
2023/07/09 11:29:17;;;;;;;6.07;4.65;;;768.80;1382.40;;;;;;5083838;28;20111;-61
2023/07/09 11:31:46;;;;;;;6.15;4.78;;;768.60;1280.00;;;;;;5088848;28;20340;-63
2023/07/09 11:34:14;;;;;;;6.47;4.53;;;768.50;1331.20;;;;;;5083511;28;20435;-65
2023/07/09 11:36:48;;;;;;;5.35;4.80;;;768.00;1305.60;;;;;;5072314;28;20355;-63
2023/07/09 11:39:22;;;;;;;6.00;4.63;;;768.10;1280.00;;;;;;5088867;28;20404;-61
2023/07/09 11:41:47;;;;;;;5.47;4.68;;;768.40;1305.60;;;;;;5087855;28;20020;-60
2023/07/09 11:44:22;;;;;;;4.97;4.47;;;768.40;1305.60;;;;;;5088929;28;20085;-60
2023/07/09 11:46:54;;;;;;;17.40;6.22;;;768.40;1331.20;;;;;;5075263;28;20051;-65
2023/07/09 11:49:25;;;;;;;5.07;3.83;;;768.30;1305.60;;;;;;5088457;28;20028;-61
2023/07/09 11:51:57;;;;;;;5.13;4.63;;;768.50;1356.80;;;;;;5078695;28;20040;-62
2023/07/09 11:54:23;;;;;;;8.33;4.97;;;768.70;1331.20;;;;;;5071449;28;20051;-60
2023/07/09 11:57:00;;;;;;;6.13;4.90;;;768.40;1331.20;;;;;;5088028;28;20257;-63
2023/07/09 11:59:26;;;;;;;5.45;4.18;;;768.00;1305.60;;;;;;5088385;28;20394;-61
2023/07/09 12:01:55;;;;;;;5.63;4.60;;;743.30;1305.60;;;;;;5087987;28;20027;-63
2023/07/09 12:04:29;;;;;;;5.75;4.55;;;743.30;1305.60;;;;;;5086716;28;20044;-60
2023/07/09 12:06:59;;;;;;;6.78;4.80;;;743.30;1305.60;;;;;;5067486;28;20065;-63
2023/07/09 12:09:31;;;;;;;6.13;4.45;;;743.20;1305.60;;;;;;5067701;28;20048;-61
2023/07/09 12:11:57;;;;;;;5.80;4.80;;;743.00;1305.60;;;;;;5067596;28;20074;-61
2023/07/09 12:14:24;;;;;;;5.00;4.50;;;743.10;1305.60;;;;;;5068121;28;20024;-61
2023/07/09 12:16:54;;;;;;;5.70;4.78;;;742.80;1382.40;;;;;;5072971;28;20708;-62
2023/07/09 12:19:22;;;;;;;6.82;4.80;;;768.30;1382.40;;;;;;5072328;28;20539;-61
2023/07/09 12:21:58;;;;;;;8.13;4.38;;;768.30;1331.20;;;;;;5087265;28;20020;-60
2023/07/09 12:24:31;;;;;;;5.22;4.53;;;768.40;1382.40;;;;;;5086272;28;20036;-67